Watkinsville, Georgia
Current Conditions -  °F | °C
As of 6:51 AM on Sunday 25 Jan 2015 (Local Time) from KAHN Reporting Station
Clear Clear  
Wind Chill: 24°   Ceiling: Unl
Heat Index: 29°   Visibility: 10mi
Dew Point: 27°   Wind: 5mph
Humidity: 92%   Direction: 220°SW
Pressure: 29.96"   Gusts: NA
Location:  33.86°N, 83.41°W
Report Text: KAHN 251151Z 22004KT 10SM CLR M02/M03 A2996 RMK AO2 SLP150 T10171028 10028 21022 53000
Loading
Personal Weather Stations






























Interactive Weather Map New forecast layout! Learn more

10-Day Weather Forecast

Advertisements
Track Severe Weather on mobile